Airfield :
LOGIN :

Register | Disclaimer

   EN    FR    IT 

 










Legend :    VFR   Marginal VFR   IFR   Intensive IFR   Very Intensive IFR
Visi :
Ceiling :
>= 8 km
>= 3000ft
5 to 8 km
1000 to 3000 ft
1500m to 5 km
500 to 1000 ft
800 to 1500m
200 to 500 ft
< 800m
< 200 ft
Symbols :   Thunderstorms  Fog  Heavy snow  Heavy precipitations  Wind > 20 kt
SIGMETs :     Misc.  Thunderstorms  Icing  Turbulence  Mountain Waves  Volcanic Ashes






- Airport Elevation : 220 ft
- IATA code : CWL


EGFF - Cardiff Rhoose

CURRENT METAR :
  • 182250Z AUTO 29016KT 9999 NCD 05/02 Q1018

EXPIRED METARs :
  • 182220Z AUTO 29015KT 9999 NCD 05/02 Q1018
  • 182150Z AUTO 29020KT 9999 NCD 06/02 Q1018
  • 182120Z AUTO 29015KT 9999 FEW024 06/03 Q1017
  • 182050Z AUTO 29017KT 9999 FEW034 06/03 Q1017
  • 182020Z AUTO 29015KT 9999 BKN038 06/03 Q1017

TAF TAF EGFF
Valid from the 18 at 18:00 until the 19 at 18:00 UTC


181657Z 1818/1918 27015KT 9999 SCT025
TEMPO 1818/1821 27020G30KT 6000 SHRA
PROB30
TEMPO 1818/1819 26025G40KT 3000 +SHRAGS BKN012 BKN020CB
BECMG 1907/1910 20010KT
TEMPO 1908/1915 8000 -RA BKN014
PROB40
TEMPO 1909/1914 4000 RA BKN008
ATIS : +44 1446 729 319



MET'MAP, your aeronautical weather chart ! - Copyright ORBIFLY December 2007 - Disclaimer

ORBIFLY MET'MAP TEAM :

Programming & Development : Alexandra Zaïnal
Concept & original design : Baudouin d'Aumeries
Assistance for programming : Marc-Olivier Méhu
Technical & hardware support : Manuel Goepfert

Contact : metmap@orbifly.com




SOURCES & CREDITS :

   NOAA